sensor_id;sensor_type;location;lat;lon;timestamp;P1;durP1;ratioP1;P2;durP2;ratioP2
47589;SDS011;33316;52.298;9.056;2023-10-13T00:02:16;18.70;;;12.65;;
47589;SDS011;33316;52.298;9.056;2023-10-13T00:04:45;18.77;;;13.18;;
47589;SDS011;33316;52.298;9.056;2023-10-13T00:07:12;17.05;;;11.77;;
47589;SDS011;33316;52.298;9.056;2023-10-13T00:09:40;18.63;;;13.88;;
47589;SDS011;33316;52.298;9.056;2023-10-13T00:12:08;17.52;;;12.20;;
47589;SDS011;33316;52.298;9.056;2023-10-13T00:14:39;17.95;;;12.30;;
47589;SDS011;33316;52.298;9.056;2023-10-13T00:17:10;20.15;;;12.50;;
47589;SDS011;33316;52.298;9.056;2023-10-13T00:19:46;14.88;;;11.88;;
47589;SDS011;33316;52.298;9.056;2023-10-13T00:22:17;15.90;;;12.38;;
47589;SDS011;33316;52.298;9.056;2023-10-13T00:24:45;16.88;;;12.25;;
47589;SDS011;33316;52.298;9.056;2023-10-13T00:27:14;17.55;;;11.88;;
47589;SDS011;33316;52.298;9.056;2023-10-13T00:32:42;15.05;;;11.30;;
47589;SDS011;33316;52.298;9.056;2023-10-13T00:35:11;20.48;;;14.50;;
47589;SDS011;33316;52.298;9.056;2023-10-13T00:37:50;19.90;;;13.48;;
47589;SDS011;33316;52.298;9.056;2023-10-13T00:40:18;15.85;;;12.65;;
47589;SDS011;33316;52.298;9.056;2023-10-13T00:43:06;17.33;;;13.90;;
47589;SDS011;33316;52.298;9.056;2023-10-13T00:45:48;16.55;;;12.70;;
47589;SDS011;33316;52.298;9.056;2023-10-13T00:48:22;17.30;;;13.13;;
47589;SDS011;33316;52.298;9.056;2023-10-13T00:51:00;17.60;;;14.18;;
47589;SDS011;33316;52.298;9.056;2023-10-13T00:53:31;19.10;;;14.18;;
47589;SDS011;33316;52.298;9.056;2023-10-13T00:55:59;23.40;;;15.68;;
47589;SDS011;33316;52.298;9.056;2023-10-13T00:58:32;17.73;;;13.60;;
47589;SDS011;33316;52.298;9.056;2023-10-13T01:01:00;14.88;;;12.02;;
47589;SDS011;33316;52.298;9.056;2023-10-13T01:03:43;17.08;;;12.50;;
47589;SDS011;33316;52.298;9.056;2023-10-13T01:06:12;16.38;;;11.68;;
47589;SDS011;33316;52.298;9.056;2023-10-13T01:08:40;15.15;;;11.70;;
47589;SDS011;33316;52.298;9.056;2023-10-13T01:11:09;14.50;;;10.98;;
47589;SDS011;33316;52.298;9.056;2023-10-13T01:13:38;14.23;;;10.93;;
47589;SDS011;33316;52.298;9.056;2023-10-13T01:16:06;15.27;;;12.25;;
47589;SDS011;33316;52.298;9.056;2023-10-13T01:18:33;13.70;;;11.25;;
47589;SDS011;33316;52.298;9.056;2023-10-13T01:21:15;14.48;;;11.27;;
47589;SDS011;33316;52.298;9.056;2023-10-13T01:23:46;15.88;;;12.73;;
47589;SDS011;33316;52.298;9.056;2023-10-13T01:26:15;14.55;;;11.80;;
47589;SDS011;33316;52.298;9.056;2023-10-13T01:28:46;14.15;;;11.52;;
47589;SDS011;33316;52.298;9.056;2023-10-13T01:31:14;15.60;;;12.20;;
47589;SDS011;33316;52.298;9.056;2023-10-13T01:33:50;17.63;;;12.18;;
47589;SDS011;33316;52.298;9.056;2023-10-13T01:36:19;13.80;;;10.82;;
47589;SDS011;33316;52.298;9.056;2023-10-13T01:38:48;13.70;;;11.75;;
47589;SDS011;33316;52.298;9.056;2023-10-13T01:41:16;13.38;;;10.82;;
47589;SDS011;33316;52.298;9.056;2023-10-13T01:43:43;12.35;;;10.63;;
47589;SDS011;33316;52.298;9.056;2023-10-13T01:46:11;12.60;;;10.45;;
47589;SDS011;33316;52.298;9.056;2023-10-13T01:48:39;16.05;;;10.85;;
47589;SDS011;33316;52.298;9.056;2023-10-13T01:51:07;12.23;;;10.73;;
47589;SDS011;33316;52.298;9.056;2023-10-13T01:53:36;15.85;;;11.35;;
47589;SDS011;33316;52.298;9.056;2023-10-13T01:56:05;11.05;;;9.77;;
47589;SDS011;33316;52.298;9.056;2023-10-13T01:58:36;13.98;;;11.38;;
47589;SDS011;33316;52.298;9.056;2023-10-13T02:03:33;12.25;;;9.57;;
47589;SDS011;33316;52.298;9.056;2023-10-13T02:06:05;13.00;;;11.18;;
47589;SDS011;33316;52.298;9.056;2023-10-13T02:08:35;14.70;;;11.70;;
47589;SDS011;33316;52.298;9.056;2023-10-13T02:11:09;12.05;;;9.82;;
47589;SDS011;33316;52.298;9.056;2023-10-13T02:13:37;13.63;;;10.02;;
47589;SDS011;33316;52.298;9.056;2023-10-13T02:16:13;11.93;;;10.13;;
47589;SDS011;33316;52.298;9.056;2023-10-13T02:18:43;13.23;;;10.50;;
47589;SDS011;33316;52.298;9.056;2023-10-13T02:21:16;12.60;;;8.93;;
47589;SDS011;33316;52.298;9.056;2023-10-13T02:23:43;10.95;;;8.48;;
47589;SDS011;33316;52.298;9.056;2023-10-13T02:26:12;9.38;;;8.15;;
47589;SDS011;33316;52.298;9.056;2023-10-13T02:28:40;10.57;;;8.25;;
47589;SDS011;33316;52.298;9.056;2023-10-13T02:31:06;10.85;;;8.98;;
47589;SDS011;33316;52.298;9.056;2023-10-13T02:33:33;8.48;;;7.57;;
47589;SDS011;33316;52.298;9.056;2023-10-13T02:36:00;15.07;;;9.35;;
47589;SDS011;33316;52.298;9.056;2023-10-13T02:38:30;10.85;;;8.38;;
47589;SDS011;33316;52.298;9.056;2023-10-13T02:41:13;9.95;;;8.18;;
47589;SDS011;33316;52.298;9.056;2023-10-13T02:43:45;9.85;;;7.88;;
47589;SDS011;33316;52.298;9.056;2023-10-13T02:46:12;12.07;;;8.73;;
47589;SDS011;33316;52.298;9.056;2023-10-13T02:48:42;11.45;;;8.23;;
47589;SDS011;33316;52.298;9.056;2023-10-13T02:51:12;11.60;;;8.93;;
47589;SDS011;33316;52.298;9.056;2023-10-13T02:53:42;9.25;;;7.40;;
47589;SDS011;33316;52.298;9.056;2023-10-13T02:56:14;9.07;;;7.10;;
47589;SDS011;33316;52.298;9.056;2023-10-13T02:58:46;10.00;;;7.68;;
47589;SDS011;33316;52.298;9.056;2023-10-13T03:01:17;9.10;;;7.38;;
47589;SDS011;33316;52.298;9.056;2023-10-13T03:03:44;9.27;;;7.68;;
47589;SDS011;33316;52.298;9.056;2023-10-13T03:08:43;8.43;;;6.45;;
47589;SDS011;33316;52.298;9.056;2023-10-13T03:11:11;7.85;;;6.80;;
47589;SDS011;33316;52.298;9.056;2023-10-13T03:13:40;9.02;;;6.90;;
47589;SDS011;33316;52.298;9.056;2023-10-13T03:16:13;9.70;;;5.70;;
47589;SDS011;33316;52.298;9.056;2023-10-13T03:18:53;9.50;;;6.65;;
47589;SDS011;33316;52.298;9.056;2023-10-13T03:21:21;7.30;;;6.10;;
47589;SDS011;33316;52.298;9.056;2023-10-13T03:23:55;11.52;;;6.47;;
47589;SDS011;33316;52.298;9.056;2023-10-13T03:26:31;11.32;;;7.78;;
47589;SDS011;33316;52.298;9.056;2023-10-13T03:29:02;7.60;;;6.47;;
47589;SDS011;33316;52.298;9.056;2023-10-13T03:31:33;10.93;;;8.50;;
47589;SDS011;33316;52.298;9.056;2023-10-13T03:36:36;8.38;;;6.45;;
47589;SDS011;33316;52.298;9.056;2023-10-13T03:39:23;6.68;;;5.90;;
47589;SDS011;33316;52.298;9.056;2023-10-13T03:41:56;8.75;;;5.93;;
47589;SDS011;33316;52.298;9.056;2023-10-13T03:44:26;6.50;;;5.63;;
47589;SDS011;33316;52.298;9.056;2023-10-13T03:49:22;9.27;;;6.53;;
47589;SDS011;33316;52.298;9.056;2023-10-13T03:51:50;9.45;;;6.20;;
47589;SDS011;33316;52.298;9.056;2023-10-13T03:54:19;8.23;;;6.63;;
47589;SDS011;33316;52.298;9.056;2023-10-13T03:56:47;9.80;;;6.45;;
47589;SDS011;33316;52.298;9.056;2023-10-13T03:59:17;9.70;;;7.70;;
47589;SDS011;33316;52.298;9.056;2023-10-13T04:01:46;7.45;;;6.53;;
47589;SDS011;33316;52.298;9.056;2023-10-13T04:04:24;8.45;;;6.53;;
47589;SDS011;33316;52.298;9.056;2023-10-13T04:07:00;7.30;;;5.82;;
47589;SDS011;33316;52.298;9.056;2023-10-13T04:09:51;8.05;;;6.40;;
47589;SDS011;33316;52.298;9.056;2023-10-13T04:12:35;7.60;;;6.32;;
47589;SDS011;33316;52.298;9.056;2023-10-13T04:15:20;7.45;;;5.13;;
47589;SDS011;33316;52.298;9.056;2023-10-13T04:18:03;8.52;;;6.10;;
47589;SDS011;33316;52.298;9.056;2023-10-13T04:20:43;7.13;;;5.90;;
47589;SDS011;33316;52.298;9.056;2023-10-13T04:23:11;7.75;;;5.38;;
47589;SDS011;33316;52.298;9.056;2023-10-13T04:25:47;5.85;;;5.03;;
47589;SDS011;33316;52.298;9.056;2023-10-13T04:28:34;6.53;;;4.60;;
47589;SDS011;33316;52.298;9.056;2023-10-13T04:33:51;5.72;;;4.47;;
47589;SDS011;33316;52.298;9.056;2023-10-13T04:36:21;8.70;;;5.45;;
47589;SDS011;33316;52.298;9.056;2023-10-13T04:39:01;7.05;;;5.05;;
47589;SDS011;33316;52.298;9.056;2023-10-13T04:41:35;7.03;;;5.55;;
47589;SDS011;33316;52.298;9.056;2023-10-13T04:44:04;8.95;;;5.57;;
47589;SDS011;33316;52.298;9.056;2023-10-13T04:46:52;6.80;;;5.07;;
47589;SDS011;33316;52.298;9.056;2023-10-13T04:49:21;8.43;;;5.75;;
47589;SDS011;33316;52.298;9.056;2023-10-13T04:51:54;6.55;;;5.43;;
47589;SDS011;33316;52.298;9.056;2023-10-13T04:54:38;7.55;;;5.35;;
47589;SDS011;33316;52.298;9.056;2023-10-13T04:57:15;8.85;;;6.03;;
47589;SDS011;33316;52.298;9.056;2023-10-13T04:59:51;7.35;;;5.97;;
47589;SDS011;33316;52.298;9.056;2023-10-13T05:02:51;6.35;;;5.47;;
47589;SDS011;33316;52.298;9.056;2023-10-13T05:05:36;7.70;;;5.78;;
47589;SDS011;33316;52.298;9.056;2023-10-13T05:08:35;7.45;;;5.53;;
47589;SDS011;33316;52.298;9.056;2023-10-13T05:11:20;9.75;;;5.60;;
47589;SDS011;33316;52.298;9.056;2023-10-13T05:14:05;7.10;;;4.82;;
47589;SDS011;33316;52.298;9.056;2023-10-13T05:16:50;5.63;;;4.72;;
47589;SDS011;33316;52.298;9.056;2023-10-13T05:19:34;6.95;;;5.13;;
47589;SDS011;33316;52.298;9.056;2023-10-13T05:22:20;8.07;;;5.28;;
47589;SDS011;33316;52.298;9.056;2023-10-13T05:25:04;7.90;;;6.43;;
47589;SDS011;33316;52.298;9.056;2023-10-13T05:27:49;9.57;;;6.78;;
47589;SDS011;33316;52.298;9.056;2023-10-13T05:30:33;7.25;;;5.82;;
47589;SDS011;33316;52.298;9.056;2023-10-13T05:33:17;6.50;;;5.40;;
47589;SDS011;33316;52.298;9.056;2023-10-13T05:36:02;6.35;;;5.30;;
47589;SDS011;33316;52.298;9.056;2023-10-13T05:38:54;6.27;;;4.53;;
47589;SDS011;33316;52.298;9.056;2023-10-13T05:41:40;7.32;;;5.80;;
47589;SDS011;33316;52.298;9.056;2023-10-13T05:44:24;9.63;;;5.40;;
47589;SDS011;33316;52.298;9.056;2023-10-13T05:47:04;6.85;;;4.93;;
47589;SDS011;33316;52.298;9.056;2023-10-13T05:50:12;6.70;;;4.90;;
47589;SDS011;33316;52.298;9.056;2023-10-13T05:52:54;5.25;;;4.28;;
47589;SDS011;33316;52.298;9.056;2023-10-13T05:55:40;6.43;;;4.47;;
47589;SDS011;33316;52.298;9.056;2023-10-13T05:58:25;5.25;;;4.22;;
47589;SDS011;33316;52.298;9.056;2023-10-13T06:01:12;5.40;;;3.78;;
47589;SDS011;33316;52.298;9.056;2023-10-13T06:03:57;5.82;;;3.67;;
47589;SDS011;33316;52.298;9.056;2023-10-13T06:06:41;5.95;;;3.47;;
47589;SDS011;33316;52.298;9.056;2023-10-13T06:09:27;4.18;;;3.20;;
47589;SDS011;33316;52.298;9.056;2023-10-13T06:12:13;4.95;;;3.20;;
47589;SDS011;33316;52.298;9.056;2023-10-13T06:14:58;4.90;;;3.28;;
47589;SDS011;33316;52.298;9.056;2023-10-13T06:17:42;3.78;;;2.80;;
47589;SDS011;33316;52.298;9.056;2023-10-13T06:20:27;4.80;;;2.72;;
47589;SDS011;33316;52.298;9.056;2023-10-13T06:23:11;3.00;;;2.50;;
47589;SDS011;33316;52.298;9.056;2023-10-13T06:26:04;3.50;;;2.70;;
47589;SDS011;33316;52.298;9.056;2023-10-13T06:28:50;3.25;;;2.40;;
47589;SDS011;33316;52.298;9.056;2023-10-13T06:31:17;3.75;;;2.35;;
47589;SDS011;33316;52.298;9.056;2023-10-13T06:33:51;3.13;;;2.40;;
47589;SDS011;33316;52.298;9.056;2023-10-13T06:36:20;2.92;;;2.00;;
47589;SDS011;33316;52.298;9.056;2023-10-13T06:38:47;4.55;;;2.15;;
47589;SDS011;33316;52.298;9.056;2023-10-13T06:41:20;3.28;;;2.53;;
47589;SDS011;33316;52.298;9.056;2023-10-13T06:43:57;3.42;;;2.38;;
47589;SDS011;33316;52.298;9.056;2023-10-13T06:46:30;4.18;;;2.80;;
47589;SDS011;33316;52.298;9.056;2023-10-13T06:48:59;3.90;;;2.63;;
47589;SDS011;33316;52.298;9.056;2023-10-13T06:51:28;4.45;;;2.42;;
47589;SDS011;33316;52.298;9.056;2023-10-13T06:54:03;2.92;;;2.30;;
47589;SDS011;33316;52.298;9.056;2023-10-13T06:56:35;2.53;;;1.85;;
47589;SDS011;33316;52.298;9.056;2023-10-13T06:59:06;3.30;;;2.40;;
47589;SDS011;33316;52.298;9.056;2023-10-13T07:01:33;3.13;;;2.25;;
47589;SDS011;33316;52.298;9.056;2023-10-13T07:04:06;2.85;;;2.25;;
47589;SDS011;33316;52.298;9.056;2023-10-13T07:06:39;4.20;;;2.60;;
47589;SDS011;33316;52.298;9.056;2023-10-13T07:09:10;3.88;;;2.88;;
47589;SDS011;33316;52.298;9.056;2023-10-13T07:11:54;4.18;;;2.85;;
47589;SDS011;33316;52.298;9.056;2023-10-13T07:14:27;5.15;;;2.55;;
47589;SDS011;33316;52.298;9.056;2023-10-13T07:16:55;5.00;;;2.75;;
47589;SDS011;33316;52.298;9.056;2023-10-13T07:19:24;6.27;;;2.87;;
47589;SDS011;33316;52.298;9.056;2023-10-13T07:21:53;3.80;;;2.50;;
47589;SDS011;33316;52.298;9.056;2023-10-13T07:24:24;4.55;;;2.53;;
47589;SDS011;33316;52.298;9.056;2023-10-13T07:26:52;3.78;;;2.78;;
47589;SDS011;33316;52.298;9.056;2023-10-13T07:29:29;4.03;;;2.83;;
47589;SDS011;33316;52.298;9.056;2023-10-13T07:31:59;4.40;;;2.78;;
47589;SDS011;33316;52.298;9.056;2023-10-13T07:34:28;2.90;;;2.10;;
47589;SDS011;33316;52.298;9.056;2023-10-13T07:36:58;3.47;;;2.60;;
47589;SDS011;33316;52.298;9.056;2023-10-13T07:39:25;3.65;;;2.83;;
47589;SDS011;33316;52.298;9.056;2023-10-13T07:41:59;2.22;;;2.03;;
47589;SDS011;33316;52.298;9.056;2023-10-13T07:44:32;4.40;;;2.33;;
47589;SDS011;33316;52.298;9.056;2023-10-13T07:47:00;4.35;;;2.67;;
47589;SDS011;33316;52.298;9.056;2023-10-13T07:49:30;4.78;;;2.30;;
47589;SDS011;33316;52.298;9.056;2023-10-13T07:52:02;4.28;;;2.38;;
47589;SDS011;33316;52.298;9.056;2023-10-13T07:54:43;5.35;;;2.20;;
47589;SDS011;33316;52.298;9.056;2023-10-13T07:57:13;4.53;;;2.50;;
47589;SDS011;33316;52.298;9.056;2023-10-13T07:59:42;3.92;;;2.20;;
47589;SDS011;33316;52.298;9.056;2023-10-13T08:02:17;3.25;;;2.13;;
47589;SDS011;33316;52.298;9.056;2023-10-13T08:04:58;3.10;;;2.22;;
47589;SDS011;33316;52.298;9.056;2023-10-13T08:07:26;3.42;;;1.98;;
47589;SDS011;33316;52.298;9.056;2023-10-13T08:09:53;3.80;;;1.73;;
47589;SDS011;33316;52.298;9.056;2023-10-13T08:14:54;6.97;;;3.60;;
47589;SDS011;33316;52.298;9.056;2023-10-13T08:17:49;8.07;;;3.25;;
47589;SDS011;33316;52.298;9.056;2023-10-13T08:20:17;2.90;;;1.77;;
47589;SDS011;33316;52.298;9.056;2023-10-13T08:22:47;2.70;;;2.10;;
47589;SDS011;33316;52.298;9.056;2023-10-13T08:25:14;3.25;;;1.90;;
47589;SDS011;33316;52.298;9.056;2023-10-13T08:27:46;3.00;;;2.15;;
47589;SDS011;33316;52.298;9.056;2023-10-13T08:30:15;3.20;;;1.70;;
47589;SDS011;33316;52.298;9.056;2023-10-13T08:32:56;2.85;;;1.80;;
47589;SDS011;33316;52.298;9.056;2023-10-13T08:35:25;5.53;;;2.13;;
47589;SDS011;33316;52.298;9.056;2023-10-13T08:38:00;4.93;;;2.10;;
47589;SDS011;33316;52.298;9.056;2023-10-13T08:40:41;2.33;;;1.67;;
47589;SDS011;33316;52.298;9.056;2023-10-13T08:43:55;3.80;;;1.92;;
47589;SDS011;33316;52.298;9.056;2023-10-13T08:46:30;3.15;;;1.60;;
47589;SDS011;33316;52.298;9.056;2023-10-13T08:49:18;4.60;;;2.00;;
47589;SDS011;33316;52.298;9.056;2023-10-13T08:51:48;3.97;;;1.95;;
47589;SDS011;33316;52.298;9.056;2023-10-13T08:54:31;2.40;;;1.70;;
47589;SDS011;33316;52.298;9.056;2023-10-13T08:57:04;4.03;;;1.88;;
47589;SDS011;33316;52.298;9.056;2023-10-13T08:59:45;2.83;;;1.73;;
47589;SDS011;33316;52.298;9.056;2023-10-13T09:02:20;3.38;;;1.90;;
47589;SDS011;33316;52.298;9.056;2023-10-13T09:04:49;2.88;;;1.90;;
47589;SDS011;33316;52.298;9.056;2023-10-13T09:07:24;2.45;;;1.38;;
47589;SDS011;33316;52.298;9.056;2023-10-13T09:09:51;4.25;;;1.77;;
47589;SDS011;33316;52.298;9.056;2023-10-13T09:12:38;3.20;;;1.58;;
47589;SDS011;33316;52.298;9.056;2023-10-13T09:15:29;3.92;;;1.60;;
47589;SDS011;33316;52.298;9.056;2023-10-13T09:18:22;3.05;;;1.73;;
47589;SDS011;33316;52.298;9.056;2023-10-13T09:21:11;6.00;;;1.90;;
47589;SDS011;33316;52.298;9.056;2023-10-13T09:23:56;3.80;;;1.92;;
47589;SDS011;33316;52.298;9.056;2023-10-13T09:26:41;4.20;;;1.88;;
47589;SDS011;33316;52.298;9.056;2023-10-13T09:29:14;4.25;;;2.42;;
47589;SDS011;33316;52.298;9.056;2023-10-13T09:31:43;6.35;;;2.50;;
47589;SDS011;33316;52.298;9.056;2023-10-13T09:34:19;4.57;;;2.40;;
47589;SDS011;33316;52.298;9.056;2023-10-13T09:36:48;4.53;;;2.28;;
47589;SDS011;33316;52.298;9.056;2023-10-13T09:39:29;6.63;;;2.25;;
47589;SDS011;33316;52.298;9.056;2023-10-13T09:41:59;6.03;;;2.58;;
47589;SDS011;33316;52.298;9.056;2023-10-13T09:44:28;3.42;;;2.30;;
47589;SDS011;33316;52.298;9.056;2023-10-13T09:46:58;5.05;;;2.65;;
47589;SDS011;33316;52.298;9.056;2023-10-13T09:49:39;4.18;;;2.40;;
47589;SDS011;33316;52.298;9.056;2023-10-13T09:52:16;5.22;;;2.40;;
47589;SDS011;33316;52.298;9.056;2023-10-13T09:54:55;3.92;;;2.05;;
47589;SDS011;33316;52.298;9.056;2023-10-13T09:57:35;4.03;;;1.92;;
47589;SDS011;33316;52.298;9.056;2023-10-13T10:00:10;3.72;;;2.15;;
47589;SDS011;33316;52.298;9.056;2023-10-13T10:02:56;6.10;;;2.22;;
47589;SDS011;33316;52.298;9.056;2023-10-13T10:05:29;5.50;;;2.63;;
47589;SDS011;33316;52.298;9.056;2023-10-13T10:08:01;3.88;;;2.30;;
47589;SDS011;33316;52.298;9.056;2023-10-13T10:10:35;4.60;;;2.55;;
47589;SDS011;33316;52.298;9.056;2023-10-13T10:13:13;6.07;;;2.58;;
47589;SDS011;33316;52.298;9.056;2023-10-13T10:15:48;5.13;;;2.70;;
47589;SDS011;33316;52.298;9.056;2023-10-13T10:18:20;5.10;;;2.55;;
47589;SDS011;33316;52.298;9.056;2023-10-13T10:20:49;7.32;;;3.40;;
47589;SDS011;33316;52.298;9.056;2023-10-13T10:23:25;6.20;;;2.13;;
47589;SDS011;33316;52.298;9.056;2023-10-13T10:25:54;4.60;;;2.58;;
47589;SDS011;33316;52.298;9.056;2023-10-13T10:28:36;6.07;;;2.47;;
47589;SDS011;33316;52.298;9.056;2023-10-13T10:33:34;6.63;;;2.55;;
47589;SDS011;33316;52.298;9.056;2023-10-13T10:36:02;4.85;;;2.55;;
47589;SDS011;33316;52.298;9.056;2023-10-13T10:38:31;4.70;;;2.55;;
47589;SDS011;33316;52.298;9.056;2023-10-13T10:41:03;8.43;;;2.72;;
47589;SDS011;33316;52.298;9.056;2023-10-13T10:43:35;6.90;;;3.25;;
47589;SDS011;33316;52.298;9.056;2023-10-13T10:46:09;6.75;;;3.40;;
47589;SDS011;33316;52.298;9.056;2023-10-13T10:48:37;5.57;;;3.08;;
47589;SDS011;33316;52.298;9.056;2023-10-13T10:53:48;4.05;;;2.22;;
47589;SDS011;33316;52.298;9.056;2023-10-13T10:56:16;5.93;;;3.08;;
47589;SDS011;33316;52.298;9.056;2023-10-13T10:58:46;5.78;;;2.80;;
47589;SDS011;33316;52.298;9.056;2023-10-13T11:01:13;8.05;;;3.35;;
47589;SDS011;33316;52.298;9.056;2023-10-13T11:03:52;7.00;;;3.25;;
47589;SDS011;33316;52.298;9.056;2023-10-13T11:06:23;7.75;;;3.25;;
47589;SDS011;33316;52.298;9.056;2023-10-13T11:09:02;7.90;;;3.28;;
47589;SDS011;33316;52.298;9.056;2023-10-13T11:11:44;6.50;;;2.67;;
47589;SDS011;33316;52.298;9.056;2023-10-13T11:14:19;6.57;;;3.45;;
47589;SDS011;33316;52.298;9.056;2023-10-13T11:16:49;6.47;;;2.90;;
47589;SDS011;33316;52.298;9.056;2023-10-13T11:19:18;6.82;;;3.38;;
47589;SDS011;33316;52.298;9.056;2023-10-13T11:21:51;9.10;;;3.55;;
47589;SDS011;33316;52.298;9.056;2023-10-13T11:24:21;8.20;;;3.53;;
47589;SDS011;33316;52.298;9.056;2023-10-13T11:26:48;7.38;;;3.30;;
47589;SDS011;33316;52.298;9.056;2023-10-13T11:29:17;7.30;;;3.22;;
47589;SDS011;33316;52.298;9.056;2023-10-13T11:31:46;6.00;;;3.28;;
47589;SDS011;33316;52.298;9.056;2023-10-13T11:34:20;7.70;;;3.33;;
47589;SDS011;33316;52.298;9.056;2023-10-13T11:36:47;7.45;;;3.03;;
47589;SDS011;33316;52.298;9.056;2023-10-13T11:39:14;8.48;;;3.45;;
47589;SDS011;33316;52.298;9.056;2023-10-13T11:41:49;8.98;;;3.45;;
47589;SDS011;33316;52.298;9.056;2023-10-13T11:44:21;7.05;;;3.47;;
47589;SDS011;33316;52.298;9.056;2023-10-13T11:46:48;9.02;;;3.53;;
47589;SDS011;33316;52.298;9.056;2023-10-13T11:49:23;9.68;;;3.28;;
47589;SDS011;33316;52.298;9.056;2023-10-13T11:52:02;8.02;;;3.15;;
47589;SDS011;33316;52.298;9.056;2023-10-13T11:54:49;6.15;;;2.83;;
47589;SDS011;33316;52.298;9.056;2023-10-13T11:57:18;6.28;;;2.97;;
47589;SDS011;33316;52.298;9.056;2023-10-13T11:59:46;7.07;;;2.90;;
47589;SDS011;33316;52.298;9.056;2023-10-13T12:02:21;5.80;;;3.00;;
47589;SDS011;33316;52.298;9.056;2023-10-13T12:05:06;8.60;;;2.65;;
47589;SDS011;33316;52.298;9.056;2023-10-13T12:07:41;8.48;;;2.72;;
47589;SDS011;33316;52.298;9.056;2023-10-13T12:10:17;5.88;;;2.75;;
47589;SDS011;33316;52.298;9.056;2023-10-13T12:13:01;8.05;;;3.22;;
47589;SDS011;33316;52.298;9.056;2023-10-13T12:15:33;6.32;;;3.05;;
47589;SDS011;33316;52.298;9.056;2023-10-13T12:18:14;9.05;;;2.97;;
47589;SDS011;33316;52.298;9.056;2023-10-13T12:20:41;12.63;;;3.25;;
47589;SDS011;33316;52.298;9.056;2023-10-13T12:23:11;5.18;;;3.13;;
47589;SDS011;33316;52.298;9.056;2023-10-13T12:25:55;6.88;;;2.67;;
47589;SDS011;33316;52.298;9.056;2023-10-13T12:28:27;6.57;;;2.95;;
47589;SDS011;33316;52.298;9.056;2023-10-13T12:30:56;5.15;;;3.03;;
47589;SDS011;33316;52.298;9.056;2023-10-13T12:33:32;7.32;;;3.10;;
47589;SDS011;33316;52.298;9.056;2023-10-13T12:36:05;6.43;;;2.63;;
47589;SDS011;33316;52.298;9.056;2023-10-13T12:38:34;9.98;;;3.63;;
47589;SDS011;33316;52.298;9.056;2023-10-13T12:41:38;6.28;;;2.40;;
47589;SDS011;33316;52.298;9.056;2023-10-13T12:44:24;8.43;;;2.85;;
47589;SDS011;33316;52.298;9.056;2023-10-13T12:47:08;6.68;;;2.58;;
47589;SDS011;33316;52.298;9.056;2023-10-13T12:49:53;7.72;;;2.88;;
47589;SDS011;33316;52.298;9.056;2023-10-13T12:52:40;5.72;;;2.55;;
47589;SDS011;33316;52.298;9.056;2023-10-13T12:55:10;5.28;;;2.63;;
47589;SDS011;33316;52.298;9.056;2023-10-13T12:57:40;8.18;;;3.47;;
47589;SDS011;33316;52.298;9.056;2023-10-13T13:00:12;7.88;;;3.15;;
47589;SDS011;33316;52.298;9.056;2023-10-13T13:02:58;8.50;;;3.15;;
47589;SDS011;33316;52.298;9.056;2023-10-13T13:05:26;8.65;;;3.70;;
47589;SDS011;33316;52.298;9.056;2023-10-13T13:07:56;8.88;;;3.28;;
47589;SDS011;33316;52.298;9.056;2023-10-13T13:10:24;8.32;;;3.20;;
47589;SDS011;33316;52.298;9.056;2023-10-13T13:13:00;8.32;;;3.17;;
47589;SDS011;33316;52.298;9.056;2023-10-13T13:15:33;5.90;;;3.42;;
47589;SDS011;33316;52.298;9.056;2023-10-13T13:18:00;8.43;;;3.10;;
47589;SDS011;33316;52.298;9.056;2023-10-13T13:20:35;9.05;;;3.53;;
47589;SDS011;33316;52.298;9.056;2023-10-13T13:23:04;9.70;;;3.40;;
47589;SDS011;33316;52.298;9.056;2023-10-13T13:25:32;8.05;;;2.78;;
47589;SDS011;33316;52.298;9.056;2023-10-13T13:28:07;7.35;;;3.22;;
47589;SDS011;33316;52.298;9.056;2023-10-13T13:30:37;7.40;;;3.33;;
47589;SDS011;33316;52.298;9.056;2023-10-13T13:33:04;6.05;;;3.13;;
47589;SDS011;33316;52.298;9.056;2023-10-13T13:35:37;7.53;;;3.08;;
47589;SDS011;33316;52.298;9.056;2023-10-13T13:38:04;11.55;;;3.28;;
47589;SDS011;33316;52.298;9.056;2023-10-13T13:40:42;8.98;;;3.42;;
47589;SDS011;33316;52.298;9.056;2023-10-13T13:43:14;10.57;;;3.50;;
47589;SDS011;33316;52.298;9.056;2023-10-13T13:45:58;7.60;;;3.05;;
47589;SDS011;33316;52.298;9.056;2023-10-13T13:48:27;6.07;;;3.05;;
47589;SDS011;33316;52.298;9.056;2023-10-13T13:50:57;9.90;;;3.30;;
47589;SDS011;33316;52.298;9.056;2023-10-13T13:53:29;6.93;;;2.90;;
47589;SDS011;33316;52.298;9.056;2023-10-13T13:56:00;11.43;;;3.20;;
47589;SDS011;33316;52.298;9.056;2023-10-13T13:58:27;6.78;;;2.83;;
47589;SDS011;33316;52.298;9.056;2023-10-13T14:01:00;8.60;;;3.28;;
47589;SDS011;33316;52.298;9.056;2023-10-13T14:03:37;6.57;;;2.70;;
47589;SDS011;33316;52.298;9.056;2023-10-13T14:06:10;10.18;;;3.03;;
47589;SDS011;33316;52.298;9.056;2023-10-13T14:08:43;10.45;;;3.25;;
47589;SDS011;33316;52.298;9.056;2023-10-13T14:11:13;9.32;;;3.40;;
47589;SDS011;33316;52.298;9.056;2023-10-13T14:14:11;7.43;;;3.05;;
47589;SDS011;33316;52.298;9.056;2023-10-13T14:16:40;6.68;;;2.75;;
47589;SDS011;33316;52.298;9.056;2023-10-13T14:19:12;6.82;;;3.20;;
47589;SDS011;33316;52.298;9.056;2023-10-13T14:21:45;7.05;;;2.95;;
47589;SDS011;33316;52.298;9.056;2023-10-13T14:24:18;5.43;;;2.80;;
47589;SDS011;33316;52.298;9.056;2023-10-13T14:26:52;6.22;;;2.60;;
47589;SDS011;33316;52.298;9.056;2023-10-13T14:29:19;4.78;;;2.72;;
47589;SDS011;33316;52.298;9.056;2023-10-13T14:31:54;9.85;;;2.72;;
47589;SDS011;33316;52.298;9.056;2023-10-13T14:34:21;7.70;;;2.80;;
47589;SDS011;33316;52.298;9.056;2023-10-13T14:36:50;6.88;;;2.78;;
47589;SDS011;33316;52.298;9.056;2023-10-13T14:39:17;4.35;;;2.35;;
47589;SDS011;33316;52.298;9.056;2023-10-13T14:41:46;5.82;;;2.78;;
47589;SDS011;33316;52.298;9.056;2023-10-13T14:44:13;6.50;;;2.92;;
47589;SDS011;33316;52.298;9.056;2023-10-13T14:46:40;6.80;;;3.17;;
47589;SDS011;33316;52.298;9.056;2023-10-13T14:49:10;6.18;;;2.72;;
47589;SDS011;33316;52.298;9.056;2023-10-13T14:51:39;6.38;;;2.60;;
47589;SDS011;33316;52.298;9.056;2023-10-13T14:54:06;7.70;;;2.92;;
47589;SDS011;33316;52.298;9.056;2023-10-13T14:56:33;8.18;;;2.80;;
47589;SDS011;33316;52.298;9.056;2023-10-13T14:59:01;8.35;;;3.22;;
47589;SDS011;33316;52.298;9.056;2023-10-13T15:01:30;8.38;;;2.78;;
47589;SDS011;33316;52.298;9.056;2023-10-13T15:03:57;6.90;;;2.67;;
47589;SDS011;33316;52.298;9.056;2023-10-13T15:06:27;6.55;;;2.53;;
47589;SDS011;33316;52.298;9.056;2023-10-13T15:08:55;4.72;;;2.65;;
47589;SDS011;33316;52.298;9.056;2023-10-13T15:11:24;5.25;;;2.67;;
47589;SDS011;33316;52.298;9.056;2023-10-13T15:14:01;6.78;;;3.00;;
47589;SDS011;33316;52.298;9.056;2023-10-13T15:16:28;9.52;;;3.20;;
47589;SDS011;33316;52.298;9.056;2023-10-13T15:18:55;5.85;;;2.70;;
47589;SDS011;33316;52.298;9.056;2023-10-13T15:21:23;8.43;;;2.88;;
47589;SDS011;33316;52.298;9.056;2023-10-13T15:23:57;8.25;;;3.30;;
47589;SDS011;33316;52.298;9.056;2023-10-13T15:26:28;5.38;;;2.70;;
47589;SDS011;33316;52.298;9.056;2023-10-13T15:28:57;8.02;;;2.70;;
47589;SDS011;33316;52.298;9.056;2023-10-13T15:31:26;6.80;;;2.60;;
47589;SDS011;33316;52.298;9.056;2023-10-13T15:34:03;8.85;;;2.67;;
47589;SDS011;33316;52.298;9.056;2023-10-13T15:36:32;8.27;;;2.65;;
47589;SDS011;33316;52.298;9.056;2023-10-13T15:39:01;6.47;;;2.55;;
47589;SDS011;33316;52.298;9.056;2023-10-13T15:41:33;5.72;;;2.40;;
47589;SDS011;33316;52.298;9.056;2023-10-13T15:44:02;8.82;;;3.25;;
47589;SDS011;33316;52.298;9.056;2023-10-13T15:46:34;7.68;;;3.00;;
47589;SDS011;33316;52.298;9.056;2023-10-13T15:49:03;6.18;;;2.53;;